Time;durP1;ratioP1;P1;durP2;ratioP2;P2;SDS_P1;SDS_P2;PMS_P1;PMS_P2;Temp;Humidity;BMP_temperature;BMP_pressure;BME280_temperature;BME280_humidity;BME280_pressure;Samples;Min_cycle;Max_cycle;Signal;HPM_P1;HPM_P2
2023/08/31 00:01:43;;;;;;;14.73;14.23;;;16.20;1.00;;;;;;4860504;29;20517;-82
2023/08/31 00:04:38;;;;;;;14.50;14.00;;;16.20;1.00;;;;;;4874116;29;20469;-82
2023/08/31 00:07:47;;;;;;;15.57;14.87;;;16.20;1.00;;;;;;4870774;29;20472;-82
2023/08/31 00:10:39;;;;;;;14.70;14.30;;;16.20;27.00;;;;;;4874924;29;20471;-82
2023/08/31 00:14:20;;;;;;;;;;;;;;;;;;;;;
2023/08/31 00:17:20;;;;;;;14.17;13.77;;;16.10;1.00;;;;;;4875164;29;21055;-82
2023/08/31 00:20:26;;;;;;;14.63;14.00;;;16.10;1.00;;;;;;4877950;29;20464;-82
2023/08/31 00:23:13;;;;;;;14.13;13.73;;;16.10;1.00;;;;;;4870261;29;20507;-83
2023/08/31 00:26:05;;;;;;;14.70;14.10;;;16.20;99.90;;;;;;4877764;29;20465;-82
2023/08/31 00:29:05;;;;;;;14.33;13.90;;;16.20;1.00;;;;;;4868959;29;20477;-82
2023/08/31 00:32:16;;;;;;;14.17;13.67;;;16.10;1.00;;;;;;4877802;29;21222;-82
2023/08/31 00:35:19;;;;;;;14.30;13.90;;;16.00;1.00;;;;;;4879086;29;20455;-84
2023/08/31 00:38:28;;;;;;;14.23;13.73;;;16.00;1.00;;;;;;4862521;29;20474;-82
2023/08/31 00:41:45;;;;;;;14.18;13.68;;;16.00;1.00;;;;;;4878566;29;20263;-84
2023/08/31 00:44:56;;;;;;;14.27;13.87;;;16.00;99.90;;;;;;4877924;29;20443;-82
2023/08/31 00:50:53;;;;;;;13.63;13.23;;;16.00;98.30;;;;;;4871671;29;20475;-82
2023/08/31 00:54:03;;;;;;;14.70;14.10;;;15.90;99.90;;;;;;4867374;29;20869;-83
2023/08/31 00:56:56;;;;;;;14.10;13.70;;;15.80;99.90;;;;;;4874713;29;20484;-83
2023/08/31 01:02:52;;;;;;;15.30;14.80;;;15.90;1.00;;;;;;4875059;29;20237;-83
2023/08/31 01:06:10;;;;;;;14.20;13.80;;;15.80;1.00;;;;;;4876293;29;20470;-83
2023/08/31 01:09:07;;;;;;;14.00;13.60;;;15.70;1.00;;;;;;4879076;29;20483;-82
2023/08/31 01:12:02;;;;;;;15.03;14.53;;;15.60;1.00;;;;;;4883249;29;20477;-84
2023/08/31 01:14:46;;;;;;;14.80;14.33;;;15.60;99.90;;;;;;4870574;29;20455;-83
2023/08/31 01:17:32;;;;;;;14.48;13.98;;;15.60;99.90;;;;;;4884150;29;20884;-84
2023/08/31 01:20:38;;;;;;;14.60;14.15;;;15.60;99.90;;;;;;4884625;29;20195;-83
2023/08/31 01:23:39;;;;;;;13.97;13.57;;;15.50;57.30;;;;;;4881275;29;20296;-84
2023/08/31 01:30:05;;;;;;;14.40;13.90;;;15.50;99.90;;;;;;4880594;29;20837;-83
2023/08/31 01:36:29;;;;;;;14.20;13.70;;;15.40;1.00;;;;;;4878465;29;24066;-84
2023/08/31 01:42:49;;;;;;;14.90;14.20;;;15.40;99.90;;;;;;4874513;29;20487;-84
2023/08/31 01:45:58;;;;;;;14.17;13.67;;;15.30;99.90;;;;;;4874453;29;20447;-83
2023/08/31 01:54:41;;;;;;;14.63;13.97;;;15.30;99.90;;;;;;4874227;29;20464;-82
2023/08/31 01:57:25;;;;;;;14.27;13.80;;;15.30;1.00;;;;;;4875856;29;20467;-82
2023/08/31 02:00:28;;;;;;;14.10;13.70;;;15.30;1.00;;;;;;4875205;29;20479;-82
2023/08/31 02:03:13;;;;;;;15.43;14.73;;;15.20;90.00;;;;;;4873932;29;20819;-83
2023/08/31 02:06:18;;;;;;;14.97;14.30;;;15.10;1.00;;;;;;4875678;29;20488;-82
2023/08/31 02:09:08;;;;;;;14.40;13.70;;;15.10;99.90;;;;;;4873399;29;20468;-83
2023/08/31 02:12:16;;;;;;;14.17;13.77;;;15.00;1.00;;;;;;4871701;29;20485;-82
2023/08/31 02:14:59;;;;;;;14.63;14.20;;;15.10;1.00;;;;;;4870508;29;20455;-83
2023/08/31 02:17:59;;;;;;;14.47;13.90;;;15.10;1.00;;;;;;4866716;29;20230;-83
2023/08/31 02:20:38;;;;;;;14.20;13.67;;;15.10;99.90;;;;;;4876956;29;20799;-83
2023/08/31 02:23:36;;;;;;;14.90;14.30;;;15.10;1.00;;;;;;4875815;29;20493;-82
2023/08/31 02:26:28;;;;;;;14.53;13.87;;;15.10;1.00;;;;;;4872132;29;20467;-82
2023/08/31 02:29:08;;;;;;;14.90;14.30;;;15.20;99.90;;;;;;4879038;29;20470;-84
2023/08/31 02:31:54;;;;;;;14.30;13.90;;;15.20;99.90;;;;;;4874996;29;20247;-82
2023/08/31 02:34:59;;;;;;;15.30;14.70;;;15.20;1.00;;;;;;4872807;29;20464;-84
2023/08/31 02:37:38;;;;;;;14.57;14.17;;;15.20;54.40;;;;;;4879818;29;20501;-84
2023/08/31 02:40:31;;;;;;;14.63;14.23;;;15.10;1.00;;;;;;4876854;29;20539;-85
2023/08/31 02:43:25;;;;;;;14.40;13.90;;;15.20;1.00;;;;;;4874927;29;20573;-82
2023/08/31 02:49:25;;;;;;;14.80;14.20;;;15.10;1.00;;;;;;4876886;29;20463;-82
2023/08/31 02:52:25;;;;;;;14.43;14.03;;;15.10;16.50;;;;;;4874289;29;20491;-83
2023/08/31 02:55:03;;;;;;;15.00;14.50;;;15.10;99.90;;;;;;4873932;29;20460;-81
2023/08/31 02:58:04;;;;;;;14.90;14.40;;;15.20;1.00;;;;;;4883116;29;20584;-82
2023/08/31 03:06:38;;;;;;;15.00;14.40;;;15.10;50.00;;;;;;4880798;29;20505;-82
2023/08/31 03:09:58;;;;;;;14.60;14.10;;;15.10;1.00;;;;;;4876106;29;20467;-84
2023/08/31 03:12:35;;;;;;;14.20;13.70;;;15.10;99.90;;;;;;4880809;29;20481;-82
2023/08/31 03:15:21;;;;;;;14.75;14.30;;;15.20;99.90;;;;;;4883330;29;20462;-82
2023/08/31 03:18:12;;;;;;;15.00;14.40;;;15.00;99.90;;;;;;4882131;29;20211;-83
2023/08/31 03:23:56;;;;;;;14.63;14.20;;;15.00;99.90;;;;;;4871984;29;20483;-83
2023/08/31 03:26:54;;;;;;;15.10;14.40;;;15.00;99.90;;;;;;4878885;29;20454;-82
2023/08/31 03:29:42;;;;;;;14.87;14.27;;;14.90;28.20;;;;;;4879882;29;20219;-82
2023/08/31 03:32:42;;;;;;;15.50;14.73;;;15.00;1.00;;;;;;4881512;29;20479;-83
2023/08/31 03:35:50;;;;;;;15.13;14.53;;;15.00;99.90;;;;;;4878690;29;20210;-83
2023/08/31 03:38:37;;;;;;;14.90;14.30;;;15.00;99.90;;;;;;4878388;29;20555;-82
2023/08/31 03:44:54;;;;;;;15.10;14.60;;;14.80;99.90;;;;;;4877952;29;20990;-83
2023/08/31 03:47:56;;;;;;;15.00;14.40;;;14.80;1.00;;;;;;4872796;29;20455;-83
2023/08/31 03:51:08;;;;;;;15.60;15.10;;;14.80;94.90;;;;;;4877679;29;20490;-83
2023/08/31 03:54:00;;;;;;;15.00;14.43;;;14.80;1.00;;;;;;4877517;29;20547;-82
2023/08/31 03:56:54;;;;;;;15.43;14.57;;;14.80;99.90;;;;;;4876412;29;20471;-82
2023/08/31 03:59:42;;;;;;;14.97;14.47;;;14.90;51.10;;;;;;4875672;29;21197;-82
2023/08/31 04:02:46;;;;;;;15.60;15.00;;;14.80;1.00;;;;;;4876212;29;20492;-84
2023/08/31 04:05:51;;;;;;;15.55;14.95;;;14.80;99.90;;;;;;4878630;29;20479;-83
2023/08/31 04:08:45;;;;;;;15.00;14.50;;;14.90;1.00;;;;;;4881131;29;20207;-84
2023/08/31 04:11:38;;;;;;;14.48;13.98;;;14.80;1.00;;;;;;4873660;29;20988;-83
2023/08/31 04:14:39;;;;;;;14.90;14.47;;;14.90;99.90;;;;;;4881452;29;20203;-82
2023/08/31 04:18:08;;;;;;;15.50;14.87;;;14.90;1.00;;;;;;4879824;29;20463;-82
2023/08/31 04:21:08;;;;;;;15.37;14.77;;;14.90;1.00;;;;;;4878031;29;20452;-83
2023/08/31 04:24:13;;;;;;;15.37;14.70;;;14.90;99.90;;;;;;4930322;23;20565;-83
2023/08/31 04:27:15;;;;;;;15.20;14.57;;;14.80;99.90;;;;;;4907206;29;20472;-83
2023/08/31 04:33:53;;;;;;;15.70;15.10;;;14.70;99.90;;;;;;4897019;29;20481;-82
2023/08/31 04:36:46;;;;;;;15.20;14.60;;;14.80;99.90;;;;;;4885273;29;20830;-83
2023/08/31 04:39:43;;;;;;;16.13;15.30;;;14.70;1.00;;;;;;4889356;29;20467;-82
2023/08/31 04:42:43;;;;;;;14.87;14.37;;;14.70;1.00;;;;;;4890202;29;20507;-84
2023/08/31 04:45:58;;;;;;;15.43;14.93;;;14.70;1.00;;;;;;4886177;29;20567;-83
2023/08/31 04:49:05;;;;;;;15.20;14.53;;;14.70;1.00;;;;;;4886717;29;20491;-83
2023/08/31 04:55:29;;;;;;;15.50;15.00;;;14.70;99.90;;;;;;4890311;29;20451;-83
2023/08/31 04:58:26;;;;;;;15.17;14.57;;;14.70;99.90;;;;;;4882114;29;20455;-83
2023/08/31 05:01:43;;;;;;;15.10;14.60;;;14.70;99.90;;;;;;4892558;29;20549;-82
2023/08/31 05:17:30;;;;;;;16.53;15.83;;;14.70;99.90;;;;;;4880655;29;20468;-81
2023/08/31 05:20:37;;;;;;;16.00;15.30;;;14.60;99.90;;;;;;4882145;29;20457;-84
2023/08/31 05:23:25;;;;;;;15.97;15.27;;;14.60;99.90;;;;;;4902939;29;20508;-81
2023/08/31 05:26:25;;;;;;;16.27;15.70;;;14.70;99.90;;;;;;4867562;29;21075;-84
2023/08/31 05:29:25;;;;;;;16.23;15.53;;;14.70;99.90;;;;;;4873736;29;20526;-84
2023/08/31 05:32:17;;;;;;;15.90;15.30;;;14.80;1.00;;;;;;4882193;29;20467;-83
2023/08/31 05:35:01;;;;;;;16.47;15.83;;;14.70;99.90;;;;;;4868328;29;20793;-83
2023/08/31 05:37:57;;;;;;;16.43;15.60;;;14.80;99.90;;;;;;4868368;29;20615;-84
2023/08/31 05:40:49;;;;;;;16.00;15.30;;;14.80;51.20;;;;;;4869867;29;20446;-84
2023/08/31 05:43:42;;;;;;;16.70;15.93;;;14.90;42.70;;;;;;4851037;29;21027;-83
2023/08/31 05:46:27;;;;;;;15.97;15.47;;;14.90;99.90;;;;;;4857190;29;20481;-83
2023/08/31 05:49:12;;;;;;;16.77;15.87;;;15.00;1.00;;;;;;4854675;29;20462;-83
2023/08/31 05:52:03;;;;;;;16.37;15.77;;;15.00;1.00;;;;;;4885325;29;21236;-83
2023/08/31 05:54:55;;;;;;;16.43;15.80;;;15.00;99.90;;;;;;4857202;29;20461;-83
2023/08/31 05:57:37;;;;;;;16.10;15.50;;;15.00;1.00;;;;;;4857253;29;20783;-83
2023/08/31 06:00:23;;;;;;;16.57;15.87;;;15.10;99.90;;;;;;4858362;29;20458;-83
2023/08/31 06:03:30;;;;;;;16.00;15.30;;;15.20;99.90;;;;;;4853061;29;20496;-83
2023/08/31 06:09:53;;;;;;;16.73;16.13;;;15.20;99.90;;;;;;4836813;29;20469;-83
2023/08/31 06:13:11;;;;;;;17.10;16.40;;;15.50;99.90;;;;;;4849943;29;20492;-83
2023/08/31 06:16:14;;;;;;;17.93;17.17;;;15.60;1.00;;;;;;4885362;29;20462;-83
2023/08/31 06:19:03;;;;;;;16.60;16.00;;;15.80;1.00;;;;;;4871619;29;20541;-84
2023/08/31 06:22:10;;;;;;;17.98;16.98;;;16.00;99.90;;;;;;4857164;29;20577;-84
2023/08/31 06:25:09;;;;;;;16.50;15.90;;;16.10;99.90;;;;;;4857732;29;20294;-84
2023/08/31 06:28:19;;;;;;;16.77;16.17;;;16.30;1.00;;;;;;4859186;29;20238;-84
2023/08/31 06:31:16;;;;;;;16.67;16.08;;;16.40;1.00;;;;;;4886739;29;20463;-83
2023/08/31 06:33:57;;;;;;;15.90;15.30;;;16.50;1.00;;;;;;4883917;29;20327;-83
2023/08/31 06:37:01;;;;;;;15.30;14.80;;;16.60;99.90;;;;;;4857263;29;20550;-83
2023/08/31 06:39:36;;;;;;;15.03;14.37;;;16.70;99.90;;;;;;4859716;29;20546;-85
2023/08/31 06:42:36;;;;;;;15.17;14.57;;;16.80;3.50;;;;;;4857184;29;20483;-83
2023/08/31 06:45:57;;;;;;;14.67;13.73;;;16.90;1.00;;;;;;4883839;29;20451;-84
2023/08/31 06:49:10;;;;;;;14.50;13.90;;;16.90;1.00;;;;;;4853810;29;20459;-84
2023/08/31 06:51:58;;;;;;;14.30;13.80;;;16.90;1.00;;;;;;4884946;29;20720;-82
2023/08/31 06:54:54;;;;;;;13.10;12.70;;;16.90;1.00;;;;;;4887252;29;20467;-84
2023/08/31 06:57:41;;;;;;;14.10;13.60;;;16.90;99.90;;;;;;4856907;29;20520;-84
2023/08/31 07:00:18;;;;;;;13.50;13.00;;;16.90;99.90;;;;;;4856553;29;20486;-84
2023/08/31 07:03:27;;;;;;;13.95;13.35;;;17.00;99.90;;;;;;4867005;29;20537;-82
2023/08/31 07:06:44;;;;;;;14.20;13.70;;;17.00;99.90;;;;;;4853145;29;20233;-83
2023/08/31 07:09:59;;;;;;;13.80;13.30;;;17.10;99.90;;;;;;4837912;29;20937;-83
2023/08/31 07:12:53;;;;;;;12.00;11.60;;;17.20;99.90;;;;;;4852377;29;20949;-84
2023/08/31 07:18:45;;;;;;;12.53;12.13;;;17.40;51.80;;;;;;4830923;29;20468;-83
2023/08/31 07:21:55;;;;;;;12.40;11.90;;;17.40;2.50;;;;;;4855476;29;20445;-84
2023/08/31 07:24:50;;;;;;;13.00;12.40;;;17.50;1.00;;;;;;4869911;29;20470;-84
2023/08/31 07:27:53;;;;;;;11.63;11.23;;;17.60;1.00;;;;;;4856218;29;20584;-83
2023/08/31 07:30:56;;;;;;;12.90;12.17;;;17.60;1.00;;;;;;4854285;29;20460;-83
2023/08/31 07:36:47;;;;;;;12.80;12.30;;;17.50;1.00;;;;;;4856798;29;20460;-83
2023/08/31 07:39:31;;;;;;;12.47;12.03;;;17.40;1.00;;;;;;4854507;29;20451;-83
2023/08/31 07:42:22;;;;;;;12.67;12.27;;;17.40;1.00;;;;;;4854658;29;20472;-83
2023/08/31 07:45:25;;;;;;;12.40;11.80;;;17.10;1.00;;;;;;4875849;29;20474;-83
2023/08/31 07:48:29;;;;;;;12.52;12.02;;;17.30;1.00;;;;;;4855501;29;20479;-83
2023/08/31 07:51:32;;;;;;;12.67;12.07;;;17.40;1.00;;;;;;4849585;29;20211;-83
2023/08/31 07:54:20;;;;;;;10.97;10.70;;;17.60;1.00;;;;;;4852156;29;20467;-84
2023/08/31 07:57:19;;;;;;;11.87;11.47;;;17.60;1.00;;;;;;4852929;29;20464;-83
2023/08/31 08:00:06;;;;;;;11.60;11.13;;;17.70;1.00;;;;;;4854162;29;20467;-83
2023/08/31 08:03:11;;;;;;;12.00;11.57;;;17.60;1.00;;;;;;4852844;29;20507;-82
2023/08/31 08:05:52;;;;;;;11.90;11.20;;;17.70;1.00;;;;;;4859654;29;20212;-82
2023/08/31 08:09:18;;;;;;;11.27;10.97;;;17.80;1.00;;;;;;4885943;29;20480;-83
2023/08/31 08:12:16;;;;;;;10.95;10.65;;;17.80;99.90;;;;;;4833482;29;21176;-84
2023/08/31 08:15:00;;;;;;;11.17;10.73;;;18.00;99.90;;;;;;4841177;29;20299;-84
2023/08/31 08:18:32;;;;;;;11.20;10.80;;;18.00;99.90;;;;;;4855114;29;20504;-84
2023/08/31 08:21:20;;;;;;;10.40;10.03;;;18.00;99.90;;;;;;4853318;29;20447;-82
2023/08/31 08:24:55;;;;;;;10.40;9.70;;;18.00;99.90;;;;;;4852699;29;20468;-83
2023/08/31 08:27:58;;;;;;;9.17;8.87;;;18.10;99.90;;;;;;4845915;29;20511;-83
2023/08/31 08:30:52;;;;;;;8.80;8.30;;;18.20;99.90;;;;;;4852905;29;20460;-84
2023/08/31 08:33:43;;;;;;;9.60;9.00;;;18.20;99.90;;;;;;4853942;29;21153;-83
2023/08/31 08:36:53;;;;;;;9.17;8.83;;;18.30;99.90;;;;;;4854927;29;20458;-82
2023/08/31 08:39:45;;;;;;;7.80;7.60;;;18.50;99.90;;;;;;4855509;29;20484;-83
2023/08/31 08:42:53;;;;;;;8.95;8.52;;;18.60;99.90;;;;;;4857268;29;21166;-83
2023/08/31 08:45:53;;;;;;;9.73;9.20;;;18.60;99.90;;;;;;4856148;29;20195;-82
2023/08/31 08:48:36;;;;;;;8.00;7.60;;;18.50;99.90;;;;;;4859715;29;20221;-82
2023/08/31 08:51:31;;;;;;;8.00;7.80;;;18.60;99.90;;;;;;4857612;29;20192;-84
2023/08/31 08:54:19;;;;;;;8.80;8.40;;;18.50;99.90;;;;;;4855416;29;20617;-84
2023/08/31 08:57:08;;;;;;;8.10;7.80;;;18.60;99.90;;;;;;4869852;29;20460;-82
2023/08/31 08:59:57;;;;;;;8.90;8.27;;;18.70;99.90;;;;;;4855867;29;20802;-83
2023/08/31 09:02:43;;;;;;;8.40;8.00;;;18.70;99.90;;;;;;4855307;29;20462;-83
2023/08/31 09:05:38;;;;;;;8.20;7.90;;;18.70;99.90;;;;;;4854208;29;20496;-83
2023/08/31 09:08:37;;;;;;;8.38;7.65;;;18.70;99.90;;;;;;4858452;29;20516;-84
2023/08/31 09:14:35;;;;;;;8.00;7.80;;;18.90;99.90;;;;;;4886537;29;20213;-84
2023/08/31 09:17:58;;;;;;;8.53;8.13;;;18.80;99.90;;;;;;4887851;29;21121;-83
2023/08/31 09:21:19;;;;;;;8.57;8.17;;;19.00;99.90;;;;;;4891654;29;20455;-81
2023/08/31 09:24:24;;;;;;;8.77;8.17;;;19.20;99.90;;;;;;4874757;29;20876;-84
2023/08/31 09:27:28;;;;;;;8.90;8.23;;;19.20;99.90;;;;;;4874750;29;20483;-84
2023/08/31 09:30:08;;;;;;;7.33;6.93;;;19.20;99.90;;;;;;4876287;29;20460;-83
2023/08/31 09:37:25;;;;;;;7.77;7.17;;;19.30;99.90;;;;;;4858879;29;20455;-84
2023/08/31 09:40:10;;;;;;;7.00;6.43;;;19.40;99.90;;;;;;4876581;29;20463;-83
2023/08/31 09:43:20;;;;;;;6.57;6.20;;;19.40;99.90;;;;;;4878851;29;20495;-83
2023/08/31 09:46:23;;;;;;;7.13;6.77;;;19.60;99.90;;;;;;4860604;29;20459;-83
2023/08/31 09:49:31;;;;;;;6.30;6.00;;;19.60;99.90;;;;;;4876350;29;20507;-82
2023/08/31 10:01:46;;;;;;;8.47;7.07;;;19.50;99.90;;;;;;4858724;29;20223;-84
2023/08/31 10:05:10;;;;;;;5.68;5.35;;;19.50;99.90;;;;;;4875970;29;20574;-83
2023/08/31 10:11:16;;;;;;;7.10;6.50;;;19.60;99.90;;;;;;4867433;29;20463;-84
2023/08/31 10:14:20;;;;;;;7.17;6.70;;;19.60;99.90;;;;;;5000088;23;20541;-83
2023/08/31 10:17:25;;;;;;;6.40;6.10;;;19.70;99.90;;;;;;4986847;28;20447;-84
2023/08/31 10:20:49;;;;;;;6.50;6.10;;;19.50;99.90;;;;;;4987312;28;20450;-84
2023/08/31 10:23:37;;;;;;;6.93;6.63;;;19.40;99.90;;;;;;4976681;28;21100;-84
2023/08/31 10:27:01;;;;;;;6.87;6.47;;;19.40;99.90;;;;;;4944574;28;20460;-84
2023/08/31 10:29:48;;;;;;;6.33;6.00;;;19.30;99.90;;;;;;4974574;28;20447;-84
2023/08/31 10:33:11;;;;;;;6.60;6.30;;;19.30;99.90;;;;;;4958686;28;20496;-85
2023/08/31 10:36:11;;;;;;;;;;;;;;;;;;;;;
2023/08/31 10:39:26;;;;;;;6.27;5.97;;;19.40;99.90;;;;;;4946419;28;20494;-83
2023/08/31 10:46:00;;;;;;;6.27;5.97;;;19.50;99.90;;;;;;4973039;28;20443;-83
2023/08/31 10:49:31;;;;;;;6.80;6.40;;;19.50;99.90;;;;;;4974263;28;20470;-83
2023/08/31 10:52:44;;;;;;;7.27;6.77;;;19.40;99.90;;;;;;4977081;28;20486;-84
2023/08/31 10:55:33;;;;;;;7.73;7.03;;;19.50;99.90;;;;;;4972444;28;21051;-83
2023/08/31 10:58:42;;;;;;;7.30;6.90;;;19.50;99.90;;;;;;4973725;28;20478;-84
2023/08/31 11:02:20;;;;;;;7.23;6.80;;;19.50;99.90;;;;;;4973600;28;20432;-83
2023/08/31 11:05:19;;;;;;;6.85;6.55;;;19.40;99.90;;;;;;4863937;29;20540;-84
2023/08/31 11:08:37;;;;;;;7.17;6.67;;;19.50;99.90;;;;;;4973596;28;21022;-83
2023/08/31 11:11:47;;;;;;;7.90;7.50;;;19.60;99.90;;;;;;4976287;28;20467;-84
2023/08/31 11:15:00;;;;;;;7.43;7.13;;;19.60;99.90;;;;;;4977318;28;20434;-84
2023/08/31 11:20:59;;;;;;;6.80;6.50;;;19.90;99.90;;;;;;4958200;28;20454;-84
2023/08/31 11:24:02;;;;;;;7.03;6.73;;;19.80;99.90;;;;;;4974815;28;20490;-84
2023/08/31 11:27:04;;;;;;;6.93;6.53;;;19.80;99.90;;;;;;4973872;28;20466;-84
2023/08/31 11:29:47;;;;;;;5.63;5.50;;;19.70;99.90;;;;;;4974523;28;20487;-84
2023/08/31 11:32:35;;;;;;;6.93;6.63;;;19.60;99.90;;;;;;4958959;28;20486;-85
2023/08/31 11:35:51;;;;;;;6.53;6.10;;;19.80;99.90;;;;;;4967218;28;20546;-84
2023/08/31 11:38:52;;;;;;;6.43;6.03;;;19.90;99.90;;;;;;4948774;28;20482;-85
2023/08/31 11:41:44;;;;;;;6.70;6.40;;;20.00;99.90;;;;;;4961394;28;20464;-84
2023/08/31 11:47:43;;;;;;;5.97;5.77;;;20.20;99.90;;;;;;4974911;28;20451;-84
2023/08/31 11:50:52;;;;;;;7.23;6.93;;;20.00;99.90;;;;;;4975838;28;20523;-85
2023/08/31 11:54:01;;;;;;;6.93;6.60;;;19.90;99.90;;;;;;4958734;28;20487;-84
2023/08/31 11:57:09;;;;;;;7.87;5.90;;;20.10;99.90;;;;;;4958106;28;20534;-84
2023/08/31 12:00:15;;;;;;;6.90;6.50;;;20.10;99.90;;;;;;4977861;28;20452;-84
2023/08/31 12:03:28;;;;;;;7.33;7.03;;;20.20;99.90;;;;;;4970663;28;20453;-84
2023/08/31 12:07:04;;;;;;;6.40;6.20;;;20.10;99.90;;;;;;4969065;28;20462;-86
2023/08/31 12:10:10;;;;;;;6.72;6.43;;;20.20;99.90;;;;;;4958360;28;20490;-85
2023/08/31 12:13:20;;;;;;;7.50;7.13;;;20.10;99.90;;;;;;4958255;28;20231;-84
2023/08/31 12:16:27;;;;;;;6.70;6.50;;;20.20;99.90;;;;;;4964451;28;20466;-84
2023/08/31 12:19:37;;;;;;;6.70;6.47;;;20.20;99.90;;;;;;4981735;28;20462;-84
2023/08/31 12:22:33;;;;;;;7.03;6.57;;;20.20;99.90;;;;;;4978192;28;20575;-84
2023/08/31 12:28:41;;;;;;;9.20;6.80;;;20.30;99.90;;;;;;4977386;28;20222;-84
2023/08/31 12:31:52;;;;;;;6.87;6.50;;;20.50;99.90;;;;;;4973242;28;20447;-84
2023/08/31 12:35:01;;;;;;;6.57;6.27;;;20.50;99.90;;;;;;4977466;28;20601;-83
2023/08/31 12:37:50;;;;;;;8.30;7.70;;;20.60;99.90;;;;;;4965679;28;20460;-83
2023/08/31 12:41:09;;;;;;;7.73;7.43;;;20.40;99.90;;;;;;4964098;28;20458;-84
2023/08/31 12:43:50;;;;;;;6.35;6.05;;;20.40;99.90;;;;;;4979625;28;20478;-83
2023/08/31 12:47:08;;;;;;;;;;;;;;;;;;;;;
2023/08/31 12:50:03;;;;;;;6.87;6.57;;;20.30;99.90;;;;;;4979824;28;20573;-83
2023/08/31 12:56:21;;;;;;;8.17;7.77;;;20.40;99.90;;;;;;4961810;28;20215;-83
2023/08/31 12:59:13;;;;;;;7.20;6.80;;;20.40;99.90;;;;;;4976271;28;20449;-82
2023/08/31 13:02:33;;;;;;;8.00;7.40;;;20.40;99.90;;;;;;4978812;28;20234;-84
2023/08/31 13:05:25;;;;;;;7.53;7.23;;;20.40;99.90;;;;;;4962343;28;20984;-84
2023/08/31 13:08:04;;;;;;;8.47;7.97;;;20.30;99.90;;;;;;4950457;28;20956;-83
2023/08/31 13:11:23;;;;;;;7.13;6.83;;;20.20;99.90;;;;;;4979803;28;20454;-84
2023/08/31 13:14:15;;;;;;;7.60;7.20;;;20.10;99.90;;;;;;4978130;28;20447;-84
2023/08/31 13:17:26;;;;;;;7.28;6.78;;;20.10;99.90;;;;;;4981201;28;20454;-83
2023/08/31 13:20:44;;;;;;;7.20;6.80;;;20.20;99.90;;;;;;4975676;28;20286;-84
2023/08/31 13:23:45;;;;;;;7.00;6.57;;;20.40;99.90;;;;;;4977563;28;20482;-83
2023/08/31 13:26:41;;;;;;;7.37;6.97;;;20.50;99.90;;;;;;4973070;28;20966;-85
2023/08/31 13:29:37;;;;;;;7.40;7.00;;;20.50;99.90;;;;;;4978412;28;20508;-85
2023/08/31 13:32:28;;;;;;;7.20;6.90;;;20.60;99.90;;;;;;4950958;28;20474;-83
2023/08/31 13:35:25;;;;;;;7.90;7.20;;;20.70;99.90;;;;;;4967349;28;20461;-84
2023/08/31 13:38:08;;;;;;;7.03;6.33;;;20.80;99.90;;;;;;4979296;28;20463;-84
2023/08/31 13:41:02;;;;;;;7.00;6.73;;;20.80;99.90;;;;;;4978951;28;20923;-83
2023/08/31 13:43:55;;;;;;;7.53;7.03;;;20.70;99.90;;;;;;4978448;28;20467;-84
2023/08/31 13:50:00;;;;;;;;;;;;;;;;;;;;;
2023/08/31 13:53:26;;;;;;;8.50;7.90;;;20.40;99.90;;;;;;4978891;28;20477;-84
2023/08/31 13:56:27;;;;;;;9.00;8.50;;;20.30;99.90;;;;;;4978365;28;20449;-83
2023/08/31 13:59:13;;;;;;;8.40;7.83;;;20.30;99.90;;;;;;4979739;28;20469;-83
2023/08/31 14:02:18;;;;;;;8.20;7.80;;;20.30;99.90;;;;;;4974856;28;20467;-84
2023/08/31 14:05:21;;;;;;;8.10;7.80;;;20.20;99.90;;;;;;4978879;28;20573;-84
2023/08/31 14:08:14;;;;;;;8.10;7.80;;;20.10;99.90;;;;;;4968986;28;20467;-84
2023/08/31 14:11:02;;;;;;;8.20;7.60;;;20.10;99.90;;;;;;4972608;28;20487;-84
2023/08/31 14:20:28;;;;;;;7.80;7.30;;;20.00;99.90;;;;;;4971355;28;20455;-83
2023/08/31 14:24:01;;;;;;;7.20;6.90;;;20.10;99.90;;;;;;4954846;28;20466;-84
2023/08/31 14:27:00;;;;;;;7.47;7.07;;;20.10;99.90;;;;;;4973203;28;21031;-84
2023/08/31 14:29:58;;;;;;;7.47;6.97;;;20.10;99.90;;;;;;4976372;28;20974;-82
2023/08/31 14:33:11;;;;;;;9.53;7.70;;;20.20;99.90;;;;;;4930706;28;20474;-83
2023/08/31 14:36:27;;;;;;;7.80;7.37;;;20.30;99.90;;;;;;4974246;28;20510;-83
2023/08/31 14:39:29;;;;;;;7.30;7.00;;;20.40;99.90;;;;;;4964742;28;20467;-83
2023/08/31 14:46:15;;;;;;;7.70;7.40;;;20.30;99.90;;;;;;4972790;28;20466;-84
2023/08/31 14:56:15;;;;;;;7.60;7.30;;;20.30;99.90;;;;;;4974739;28;20457;-83
2023/08/31 14:59:25;;;;;;;8.57;7.97;;;20.30;99.90;;;;;;4972189;28;20459;-84
2023/08/31 15:02:21;;;;;;;8.17;7.77;;;20.30;99.90;;;;;;4970931;28;20495;-84
2023/08/31 15:05:17;;;;;;;8.63;8.23;;;20.30;99.90;;;;;;4973114;28;20480;-84
2023/08/31 15:11:47;;;;;;;8.80;8.40;;;20.50;99.90;;;;;;4977497;28;20972;-84
2023/08/31 15:14:35;;;;;;;8.30;7.90;;;20.40;99.90;;;;;;4971842;28;20462;-84
2023/08/31 15:20:34;;;;;;;8.43;7.90;;;20.30;99.90;;;;;;4968312;28;20478;-84
2023/08/31 15:23:34;;;;;;;8.33;7.93;;;20.20;99.90;;;;;;4975632;28;20462;-83
2023/08/31 15:29:20;;;;;;;8.40;8.00;;;20.10;99.90;;;;;;4975753;28;20475;-82
2023/08/31 15:32:05;;;;;;;9.47;8.73;;;19.90;99.90;;;;;;4975916;28;20471;-83
2023/08/31 15:34:55;;;;;;;8.85;8.30;;;19.90;99.90;;;;;;4956755;28;20474;-83
2023/08/31 15:37:29;;;;;;;8.90;8.40;;;19.90;99.90;;;;;;4980226;28;20227;-84
2023/08/31 15:40:12;;;;;;;8.93;8.43;;;19.90;99.90;;;;;;4981000;28;20439;-84
2023/08/31 15:43:16;;;;;;;9.60;9.00;;;19.80;99.90;;;;;;4979285;28;20548;-83
2023/08/31 15:45:56;;;;;;;9.90;9.40;;;19.70;99.90;;;;;;4976670;28;20538;-83
2023/08/31 15:48:42;;;;;;;10.20;9.70;;;19.70;99.90;;;;;;4966915;28;20501;-83
2023/08/31 15:54:43;;;;;;;10.13;9.50;;;19.60;99.90;;;;;;4960947;28;20454;-83
2023/08/31 15:57:26;;;;;;;9.50;9.10;;;19.60;99.90;;;;;;4977297;28;20526;-82
2023/08/31 16:00:19;;;;;;;9.83;9.27;;;19.60;99.90;;;;;;4976627;28;20466;-83
2023/08/31 16:03:11;;;;;;;9.70;9.40;;;19.60;99.90;;;;;;4982894;28;20953;-83
2023/08/31 16:06:02;;;;;;;10.10;9.60;;;19.70;99.90;;;;;;4979443;28;21043;-84
2023/08/31 16:08:46;;;;;;;10.35;10.05;;;19.70;99.90;;;;;;4971705;28;20480;-82
2023/08/31 16:11:58;;;;;;;10.30;9.73;;;19.70;99.90;;;;;;4977013;28;21790;-83
2023/08/31 16:14:40;;;;;;;10.88;10.38;;;19.70;99.90;;;;;;4966145;28;20464;-82
2023/08/31 16:17:42;;;;;;;9.90;9.60;;;19.70;99.90;;;;;;4963931;28;20197;-82
2023/08/31 16:20:50;;;;;;;10.80;10.40;;;19.60;99.90;;;;;;4970621;28;21150;-83
2023/08/31 16:23:32;;;;;;;11.40;10.80;;;19.50;99.90;;;;;;4962695;28;20474;-83
2023/08/31 16:26:18;;;;;;;11.10;10.50;;;19.50;99.90;;;;;;4958967;28;21034;-82
2023/08/31 16:32:06;;;;;;;11.60;11.03;;;19.40;99.90;;;;;;4934875;28;20494;-81
2023/08/31 16:35:04;;;;;;;11.00;10.60;;;19.40;99.90;;;;;;4975313;28;20462;-82
2023/08/31 16:38:13;;;;;;;10.68;9.93;;;19.40;99.90;;;;;;4978044;28;20570;-83
2023/08/31 16:40:53;;;;;;;10.80;10.20;;;19.30;99.90;;;;;;4970284;28;20290;-82
2023/08/31 16:43:42;;;;;;;11.60;10.90;;;19.40;99.90;;;;;;4975286;28;20816;-83
2023/08/31 16:46:33;;;;;;;11.40;10.90;;;19.30;99.90;;;;;;4970644;28;21036;-82
2023/08/31 16:49:26;;;;;;;10.53;10.23;;;19.30;99.90;;;;;;4952606;28;20474;-83
2023/08/31 16:52:50;;;;;;;12.60;12.00;;;19.30;99.90;;;;;;4971414;28;20486;-83
2023/08/31 16:55:30;;;;;;;12.97;12.47;;;19.30;99.90;;;;;;4971260;28;20565;-83
2023/08/31 17:01:23;;;;;;;12.50;11.90;;;19.20;99.90;;;;;;4961121;28;20554;-83
2023/08/31 17:04:28;;;;;;;12.50;12.00;;;19.20;99.90;;;;;;4951538;28;20487;-83
2023/08/31 17:07:27;;;;;;;12.83;12.17;;;19.10;99.90;;;;;;4973698;28;20447;-83
2023/08/31 17:10:33;;;;;;;12.40;12.00;;;19.10;99.90;;;;;;4975318;28;20475;-84
2023/08/31 17:13:20;;;;;;;12.30;11.90;;;19.10;99.90;;;;;;4970140;28;20490;-84
2023/08/31 17:16:16;;;;;;;12.80;12.10;;;19.10;99.90;;;;;;4956494;28;20498;-84
2023/08/31 17:19:10;;;;;;;13.70;12.93;;;19.10;99.90;;;;;;4978452;28;20497;-82
2023/08/31 17:22:15;;;;;;;13.57;13.07;;;19.10;99.90;;;;;;4972484;28;20488;-83
2023/08/31 17:25:09;;;;;;;14.90;14.07;;;19.10;99.90;;;;;;4946473;28;20466;-84
2023/08/31 17:28:00;;;;;;;12.73;12.20;;;19.10;99.90;;;;;;4960789;28;20457;-83
2023/08/31 17:31:00;;;;;;;;;;;;;;;;;;;;;
2023/08/31 17:33:40;;;;;;;12.30;11.90;;;19.10;99.90;;;;;;4975281;28;20414;-82
2023/08/31 17:36:48;;;;;;;12.73;12.07;;;19.10;99.90;;;;;;4968678;28;20467;-83
2023/08/31 17:39:42;;;;;;;12.53;12.03;;;19.00;99.90;;;;;;4973796;28;20481;-82
2023/08/31 17:42:41;;;;;;;13.43;12.93;;;19.00;99.90;;;;;;4976668;28;20477;-82
2023/08/31 17:45:45;;;;;;;13.63;13.00;;;19.00;99.90;;;;;;4976879;28;20450;-83
2023/08/31 17:48:26;;;;;;;13.80;12.90;;;18.90;99.90;;;;;;4973857;28;20203;-82